Details From KORF - Norfolk Intl
To MKJP - Norman Manley Intl
Flight Number -
Tags Generated
Created
Modified
Stats Distance 1,139 nm / 2,110 km
Max Altitude 0 ft / 0 m
Waypoints 4
Social Downloads 0
Likes 0
Share VATSIM

Download

Looking for another format? Having issues loading an existing format? Contact us
Advertisement - Login to hide

Notes

Generated

Route

KORF MAMEL MLY71 MKJP

ID Type Via Altitude Latitude Longitude Leg Dist Tot Dist Heading (true) Name
O KORF APT - 0 ft / 0 m 36.89647˚ -76.21165˚ - 0 nm - -
MAMEL FIX - 0 ft / 0 m 25.53666˚ -76.64767˚ 682 nm 682 nm 182° / 182° -
MLY71 FIX - 0 ft / 0 m 17.94091˚ -76.80520˚ 456 nm 1138 nm 181° / 181° -
O MKJP APT - 0 ft / 0 m 17.94026˚ -76.79945˚ 0 nm 1139 nm 97° / 97° -

Altitude Profile

Advertisement - Login to hide

Weather


0- 5 10 15 20 25 30 35+ Temperature / ° C

Clouds and Precipitation
Forecast for 2017-12-11 18:00 UTC. Updated 25 minutes ago

Ground ~20,000 ft ~40,000 ft Winds

KORF

Details ICAO KORF (ORF)
Name Norfolk Intl
Region United States
Timezone America/New_York (UTC-5.0)
Stats Elevation 26 ft / 8 m (AMSL)
Location 36.894606° -76.201594°
Runways 2
Magnetic Variation 10.907° W

METAR

KORF 111251Z VRB04KT 10SM CLR 02/M03 A3011 RMK AO2 SLP194 T00221028

Decode

TAF

KORF 111134Z 1112/1212 24005KT P6SM SKC FM111700 29007KT P6SM SKC FM120800 20009KT P6SM SCT250

Decode

Departure Runways

ID Width Length Bearing (true) Bearing (mag) Surface Threshold Offset Overrun Length
05 151 ft / 46 m 8,028 ft / 2,447 m 37.69° 48.60° Asphalt 190 ft / 58 m 1,198 ft / 365 m
14 151 ft / 46 m 4,674 ft / 1,425 m 128.08° 138.99° Asphalt 187 ft / 57 m 207 ft / 63 m
23 151 ft / 46 m 8,028 ft / 2,447 m 217.70° 228.61° Asphalt 0 ft / 0 m 200 ft / 61 m
32 151 ft / 46 m 4,674 ft / 1,425 m 308.09° 319.00° Asphalt 177 ft / 54 m 0 ft / 0 m

MKJP

Details ICAO MKJP (KIN)
Name Norman Manley Intl
Region Jamaica
Timezone Unknown (UTC+0.0)
Stats Elevation 10 ft / 3 m (AMSL)
Location 17.935665° -76.787560°
Runways 1
Magnetic Variation 7.540° W

METAR

MKJP 111300Z 02009KT 7000 -RA VCSH FEW020 BKN030 24/24 Q1015

Decode

TAF

TAF MKJP 110515Z 1106/1206 36008KT 9999 FEW020 SCT036 BECMG 1113/1115 14010KT TEMPO 1114/1124 SHRA SCT018 BKN034 BECMG 1123/1201 36009KT

Decode

Destination Runways

ID Width Length Bearing (true) Bearing (mag) Surface Threshold Offset Overrun Length
12 150 ft / 46 m 8,912 ft / 2,717 m 112.09° 119.63° Asphalt 0 ft / 0 m 0 ft / 0 m
30 150 ft / 46 m 8,912 ft / 2,717 m 292.10° 299.64° Asphalt 0 ft / 0 m 0 ft / 0 m

Approach Navaids

Runway Type Ident Frequency Range Bearing (true) Bearing (mag) Slope Elevation
12 Localiser IMLY 109.10 MHz 18 nm / 33 km 115.09° 122.63° - 10 ft / 3 m (AMSL)
12 Glidescope IMLY 109.10 MHz 10 nm / 19 km 115.09° 122.63° 3.00° 8 ft / 2 m (AMSL)